Time;durP1;ratioP1;P1;durP2;ratioP2;P2;SDS_P1;SDS_P2;PMS_P1;PMS_P2;Temp;Humidity;BMP_temperature;BMP_pressure;BME280_temperature;BME280_humidity;BME280_pressure;Samples;Min_cycle;Max_cycle;Signal;HPM_P1;HPM_P2
2023/10/02 00:01:47;;;;;;;33.33;16.30;;;;;;;;;;5070821;28;20036;-58
2023/10/02 00:04:19;;;;;;;36.83;17.35;;;;;;;;;;5072126;28;20044;-58
2023/10/02 00:06:50;;;;;;;34.58;15.93;;;;;;;;;;5080586;28;20109;-58
2023/10/02 00:09:20;;;;;;;37.72;16.70;;;;;;;;;;5077247;28;20128;-59
2023/10/02 00:11:47;;;;;;;34.47;16.13;;;;;;;;;;5071897;28;20059;-58
2023/10/02 00:14:18;;;;;;;34.40;17.17;;;;;;;;;;5073791;28;20775;-58
2023/10/02 00:17:03;;;;;;;35.30;17.02;;;;;;;;;;5075879;28;20085;-58
2023/10/02 00:19:35;;;;;;;37.10;17.13;;;;;;;;;;5075694;28;20085;-58
2023/10/02 00:22:06;;;;;;;35.90;17.02;;;;;;;;;;5070196;28;20040;-58
2023/10/02 00:24:35;;;;;;;29.83;15.88;;;;;;;;;;5068025;28;20040;-58
2023/10/02 00:27:03;;;;;;;35.38;16.67;;;;;;;;;;5068023;28;20047;-58
2023/10/02 00:29:29;;;;;;;37.28;17.17;;;;;;;;;;5077260;28;20520;-58
2023/10/02 00:31:56;;;;;;;33.92;16.17;;;;;;;;;;5079941;28;20052;-58
2023/10/02 00:34:32;;;;;;;34.83;16.88;;;;;;;;;;5086605;28;20048;-59
2023/10/02 00:37:01;;;;;;;33.50;16.15;;;;;;;;;;5085563;28;20044;-58
2023/10/02 00:39:32;;;;;;;33.97;16.42;;;;;;;;;;5092059;28;20040;-59
2023/10/02 00:44:52;;;;;;;34.88;16.45;;;;;;;;;;5082420;28;20071;-59
2023/10/02 00:50:11;;;;;;;35.90;16.45;;;;;;;;;;5083867;28;20040;-58
2023/10/02 00:52:49;;;;;;;35.08;16.38;;;;;;;;;;5089471;28;20146;-58
2023/10/02 00:55:15;;;;;;;36.88;18.02;;;;;;;;;;5090675;28;20387;-59
2023/10/02 00:57:43;;;;;;;31.27;16.15;;;;;;;;;;5083896;28;20096;-58
2023/10/02 01:00:19;;;;;;;35.92;17.60;;;;;;;;;;5083843;28;20400;-59
2023/10/02 01:02:46;;;;;;;30.50;16.13;;;;;;;;;;5075270;28;20198;-59
2023/10/02 01:05:16;;;;;;;36.25;17.10;;;;;;;;;;5083532;28;20089;-59
2023/10/02 01:07:43;;;;;;;30.30;16.35;;;;;;;;;;5075854;28;20094;-58
2023/10/02 01:10:17;;;;;;;30.45;17.88;;;;;;;;;;5077607;28;20481;-59
2023/10/02 01:13:01;;;;;;;33.92;17.30;;;;;;;;;;5070029;28;20052;-58
2023/10/02 01:15:30;;;;;;;34.30;17.92;;;;;;;;;;5070416;28;20051;-59
2023/10/02 01:20:48;;;;;;;32.53;16.10;;;;;;;;;;5081260;28;20492;-58
2023/10/02 01:23:22;;;;;;;32.90;16.95;;;;;;;;;;5087807;28;20055;-58
2023/10/02 01:25:49;;;;;;;37.30;18.40;;;;;;;;;;5085371;28;20115;-58
2023/10/02 01:28:25;;;;;;;35.78;18.35;;;;;;;;;;5079129;28;20048;-59
2023/10/02 01:30:55;;;;;;;37.58;19.05;;;;;;;;;;5072077;28;20102;-58
2023/10/02 01:35:48;;;;;;;45.00;20.33;;;;;;;;;;5077697;28;20488;-58
2023/10/02 01:38:18;;;;;;;43.97;21.25;;;;;;;;;;5072557;28;20036;-59
2023/10/02 01:40:48;;;;;;;40.33;21.13;;;;;;;;;;5082673;28;20048;-59
2023/10/02 01:43:16;;;;;;;40.03;20.50;;;;;;;;;;5074857;28;20483;-58
2023/10/02 01:45:43;;;;;;;39.80;21.33;;;;;;;;;;5076314;28;20428;-58
2023/10/02 01:48:14;;;;;;;40.20;22.45;;;;;;;;;;5077882;28;20455;-59
2023/10/02 01:50:43;;;;;;;41.00;23.25;;;;;;;;;;5080443;28;20059;-59
2023/10/02 01:53:28;;;;;;;44.85;24.30;;;;;;;;;;5065774;28;20041;-58
2023/10/02 01:56:00;;;;;;;40.50;22.95;;;;;;;;;;5081409;28;20105;-59
2023/10/02 01:58:29;;;;;;;45.10;23.67;;;;;;;;;;5077862;28;20057;-58
2023/10/02 02:00:57;;;;;;;46.03;23.85;;;;;;;;;;5075741;28;20040;-58
2023/10/02 02:03:28;;;;;;;44.75;23.13;;;;;;;;;;5087154;28;20048;-59
2023/10/02 02:05:54;;;;;;;38.95;22.17;;;;;;;;;;5088301;28;20055;-59
2023/10/02 02:08:24;;;;;;;44.53;23.42;;;;;;;;;;5086896;28;20044;-58
2023/10/02 02:10:51;;;;;;;46.60;24.08;;;;;;;;;;5083402;28;20421;-59
2023/10/02 02:13:19;;;;;;;42.45;23.05;;;;;;;;;;5075310;28;20074;-59
2023/10/02 02:15:46;;;;;;;53.45;25.35;;;;;;;;;;5080389;28;20801;-59
2023/10/02 02:18:14;;;;;;;45.20;24.35;;;;;;;;;;5082953;28;20050;-58
2023/10/02 02:20:58;;;;;;;48.17;25.15;;;;;;;;;;5082619;28;20037;-58
2023/10/02 02:23:27;;;;;;;47.30;24.02;;;;;;;;;;5080419;28;20453;-58
2023/10/02 02:25:53;;;;;;;48.97;24.90;;;;;;;;;;5067641;28;20396;-59
2023/10/02 02:28:21;;;;;;;45.22;25.70;;;;;;;;;;5072455;28;20064;-59
2023/10/02 02:30:47;;;;;;;46.53;24.63;;;;;;;;;;5075427;28;20054;-59
2023/10/02 02:33:14;;;;;;;53.22;25.80;;;;;;;;;;5079998;28;20060;-58
2023/10/02 02:35:40;;;;;;;42.88;23.67;;;;;;;;;;5079025;28;20037;-58
2023/10/02 02:38:14;;;;;;;44.55;24.85;;;;;;;;;;5078954;28;20162;-58
2023/10/02 02:40:41;;;;;;;48.15;25.58;;;;;;;;;;5072924;28;20052;-59
2023/10/02 02:43:18;;;;;;;57.20;25.45;;;;;;;;;;5081514;28;20105;-59
2023/10/02 02:45:45;;;;;;;47.72;23.65;;;;;;;;;;5079788;28;20261;-58
2023/10/02 02:48:12;;;;;;;46.97;24.90;;;;;;;;;;5073990;28;20040;-59
2023/10/02 02:50:41;;;;;;;46.15;24.00;;;;;;;;;;5072298;28;20040;-59
2023/10/02 02:53:21;;;;;;;43.92;24.33;;;;;;;;;;5072498;28;20044;-58
2023/10/02 02:56:15;;;;;;;41.95;22.33;;;;;;;;;;5078604;28;20036;-58
2023/10/02 02:58:44;;;;;;;40.10;22.35;;;;;;;;;;5066899;28;20124;-58
2023/10/02 03:01:24;;;;;;;42.88;23.48;;;;;;;;;;5073524;28;20055;-59
2023/10/02 03:04:11;;;;;;;45.83;22.75;;;;;;;;;;5072295;28;20431;-59
2023/10/02 03:06:38;;;;;;;43.75;23.63;;;;;;;;;;5071834;28;20089;-59
2023/10/02 03:09:08;;;;;;;44.55;22.65;;;;;;;;;;5076207;28;20741;-58
2023/10/02 03:11:34;;;;;;;48.22;23.60;;;;;;;;;;5070404;28;20048;-59
2023/10/02 03:14:13;;;;;;;46.13;23.35;;;;;;;;;;5073577;28;20155;-58
2023/10/02 03:16:40;;;;;;;46.45;23.33;;;;;;;;;;5075346;28;20124;-59
2023/10/02 03:19:13;;;;;;;42.10;22.75;;;;;;;;;;5071052;28;20431;-59
2023/10/02 03:21:42;;;;;;;47.10;23.35;;;;;;;;;;5074476;28;20075;-59
2023/10/02 03:24:12;;;;;;;46.83;23.65;;;;;;;;;;5077863;28;20044;-59
2023/10/02 03:26:38;;;;;;;44.88;22.65;;;;;;;;;;5085707;28;20052;-59
2023/10/02 03:29:06;;;;;;;45.33;23.92;;;;;;;;;;5089369;28;20060;-58
2023/10/02 03:31:36;;;;;;;43.65;23.95;;;;;;;;;;5071097;28;20051;-59
2023/10/02 03:34:27;;;;;;;49.70;25.45;;;;;;;;;;5073264;28;20062;-58
2023/10/02 03:36:54;;;;;;;49.80;24.67;;;;;;;;;;5073186;28;20439;-59
2023/10/02 03:39:24;;;;;;;44.58;23.65;;;;;;;;;;5074577;28;20047;-59
2023/10/02 03:41:55;;;;;;;50.92;26.52;;;;;;;;;;5070103;28;20032;-59
2023/10/02 03:44:24;;;;;;;49.15;27.20;;;;;;;;;;5074259;28;20049;-59
2023/10/02 03:46:51;;;;;;;50.13;25.30;;;;;;;;;;5071303;28;20150;-58
2023/10/02 03:49:23;;;;;;;51.28;25.63;;;;;;;;;;5073840;28;20045;-59
2023/10/02 03:51:50;;;;;;;47.42;25.05;;;;;;;;;;5073605;28;20063;-58
2023/10/02 03:54:22;;;;;;;48.70;24.85;;;;;;;;;;5074094;28;20040;-58
2023/10/02 03:56:49;;;;;;;47.28;26.65;;;;;;;;;;5073009;28;20074;-58
2023/10/02 03:59:25;;;;;;;50.30;26.15;;;;;;;;;;5071426;28;20500;-58
2023/10/02 04:01:52;;;;;;;47.70;24.85;;;;;;;;;;5071784;28;20185;-58
2023/10/02 04:06:45;;;;;;;45.47;23.92;;;;;;;;;;5080110;28;20136;-58
2023/10/02 04:11:39;;;;;;;53.80;27.20;;;;;;;;;;5079982;28;20093;-59
2023/10/02 04:14:17;;;;;;;55.58;27.90;;;;;;;;;;5086869;28;20360;-58
2023/10/02 04:17:00;;;;;;;50.42;26.65;;;;;;;;;;5083468;28;20043;-59
2023/10/02 04:19:26;;;;;;;53.00;26.40;;;;;;;;;;5092511;28;20067;-58
2023/10/02 04:21:53;;;;;;;56.75;27.90;;;;;;;;;;5074797;28;20036;-58
2023/10/02 04:24:26;;;;;;;52.28;27.13;;;;;;;;;;5084067;28;20047;-59
2023/10/02 04:27:14;;;;;;;56.10;28.08;;;;;;;;;;5079664;28;20059;-59
2023/10/02 04:30:02;;;;;;;55.00;28.27;;;;;;;;;;5074988;28;20088;-58
2023/10/02 04:32:26;;;;;;;57.67;29.60;;;;;;;;;;5077972;28;20044;-59
2023/10/02 04:34:56;;;;;;;57.10;28.92;;;;;;;;;;5077138;28;20078;-58
2023/10/02 04:37:23;;;;;;;57.88;28.50;;;;;;;;;;5078809;28;20123;-58
2023/10/02 04:42:25;;;;;;;61.85;30.00;;;;;;;;;;5076531;28;20504;-58
2023/10/02 04:44:58;;;;;;;52.47;28.02;;;;;;;;;;5072259;28;20043;-58
2023/10/02 04:47:26;;;;;;;54.78;28.90;;;;;;;;;;5084685;28;20491;-58
2023/10/02 04:55:23;;;;;;;54.53;28.08;;;;;;;;;;5076562;28;20079;-58
2023/10/02 04:57:56;;;;;;;56.55;30.23;;;;;;;;;;5077274;28;20048;-59
2023/10/02 05:00:35;;;;;;;59.45;29.27;;;;;;;;;;5075636;28;20039;-58
2023/10/02 05:03:18;;;;;;;60.50;31.30;;;;;;;;;;5074997;28;20470;-58
2023/10/02 05:05:48;;;;;;;60.17;31.02;;;;;;;;;;5074344;28;20104;-58
2023/10/02 05:08:19;;;;;;;63.95;31.55;;;;;;;;;;5088119;28;20048;-59
2023/10/02 05:11:05;;;;;;;63.85;32.78;;;;;;;;;;5086274;28;20040;-58
2023/10/02 05:16:26;;;;;;;62.85;30.77;;;;;;;;;;5070261;28;20040;-58
2023/10/02 05:18:53;;;;;;;63.50;32.00;;;;;;;;;;5068143;28;20135;-58
2023/10/02 05:21:19;;;;;;;56.80;31.00;;;;;;;;;;5078360;28;20377;-58
2023/10/02 05:24:00;;;;;;;66.57;30.48;;;;;;;;;;5085500;28;20135;-58
2023/10/02 05:26:32;;;;;;;59.78;29.67;;;;;;;;;;5076092;28;20036;-58
2023/10/02 05:28:59;;;;;;;59.30;30.73;;;;;;;;;;5076491;28;20072;-58
2023/10/02 05:31:27;;;;;;;53.83;28.58;;;;;;;;;;5073979;28;20044;-59
2023/10/02 05:33:54;;;;;;;53.67;27.50;;;;;;;;;;5076323;28;20096;-58
2023/10/02 05:36:22;;;;;;;57.38;29.88;;;;;;;;;;5076427;28;20043;-58
2023/10/02 05:41:47;;;;;;;56.75;29.38;;;;;;;;;;5047530;28;20040;-58
2023/10/02 05:44:20;;;;;;;55.55;28.23;;;;;;;;;;5077141;28;20043;-58
2023/10/02 05:47:04;;;;;;;56.20;27.70;;;;;;;;;;5079865;28;20036;-58
2023/10/02 05:49:31;;;;;;;63.45;28.08;;;;;;;;;;5082012;28;20093;-58
2023/10/02 05:52:00;;;;;;;55.92;28.63;;;;;;;;;;5075259;28;21907;-58
2023/10/02 05:54:33;;;;;;;48.90;25.58;;;;;;;;;;5075230;28;20467;-58
2023/10/02 05:57:17;;;;;;;53.35;27.60;;;;;;;;;;5078857;28;20424;-59
2023/10/02 05:59:45;;;;;;;49.38;25.58;;;;;;;;;;5078609;28;20135;-58
2023/10/02 06:02:11;;;;;;;54.33;26.88;;;;;;;;;;5068896;28;20119;-59
2023/10/02 06:04:38;;;;;;;54.88;26.70;;;;;;;;;;5075521;28;20128;-58
2023/10/02 06:07:09;;;;;;;48.55;24.88;;;;;;;;;;5075048;28;20078;-59
2023/10/02 06:09:43;;;;;;;44.95;25.40;;;;;;;;;;5069092;28;20151;-59
2023/10/02 06:12:13;;;;;;;46.78;24.15;;;;;;;;;;5077556;28;20115;-58
2023/10/02 06:14:42;;;;;;;49.28;25.08;;;;;;;;;;5085216;28;20044;-59
2023/10/02 06:17:16;;;;;;;55.42;25.25;;;;;;;;;;5083354;28;20044;-58
2023/10/02 06:19:43;;;;;;;56.30;26.92;;;;;;;;;;5076955;28;20059;-58
2023/10/02 06:22:09;;;;;;;57.35;26.65;;;;;;;;;;5065444;28;20050;-58
2023/10/02 06:24:36;;;;;;;60.10;28.52;;;;;;;;;;5072246;28;20127;-59
2023/10/02 06:27:12;;;;;;;55.47;28.10;;;;;;;;;;5081433;28;20074;-59
2023/10/02 06:29:39;;;;;;;58.20;27.45;;;;;;;;;;5090277;28;20450;-59
2023/10/02 06:32:09;;;;;;;60.78;29.58;;;;;;;;;;5089109;28;20114;-59
2023/10/02 06:34:43;;;;;;;63.90;30.95;;;;;;;;;;5081860;28;20188;-58
2023/10/02 06:37:13;;;;;;;61.55;30.05;;;;;;;;;;5089228;28;20169;-59
2023/10/02 06:39:45;;;;;;;65.75;30.48;;;;;;;;;;5081671;28;20463;-59
2023/10/02 06:42:15;;;;;;;68.97;30.25;;;;;;;;;;5083495;28;20053;-58
2023/10/02 06:44:42;;;;;;;62.58;29.95;;;;;;;;;;5080186;28;20052;-58
2023/10/02 06:47:11;;;;;;;65.78;32.40;;;;;;;;;;5091049;28;20520;-58
2023/10/02 06:49:39;;;;;;;70.40;33.15;;;;;;;;;;5091224;28;20500;-58
2023/10/02 06:52:18;;;;;;;73.20;32.63;;;;;;;;;;5085873;28;20048;-58
2023/10/02 06:54:45;;;;;;;69.78;32.35;;;;;;;;;;5061670;28;20062;-58
2023/10/02 06:57:15;;;;;;;69.85;31.90;;;;;;;;;;5071637;28;20109;-58
2023/10/02 06:59:51;;;;;;;79.80;34.28;;;;;;;;;;5079978;28;20442;-59
2023/10/02 07:02:21;;;;;;;79.22;34.08;;;;;;;;;;5076203;28;20055;-59
2023/10/02 07:04:49;;;;;;;66.15;31.95;;;;;;;;;;5076916;28;20132;-58
2023/10/02 07:07:15;;;;;;;66.30;30.73;;;;;;;;;;5075914;28;20041;-58
2023/10/02 07:09:43;;;;;;;69.07;33.05;;;;;;;;;;5075739;28;20055;-59
2023/10/02 07:12:13;;;;;;;68.40;32.33;;;;;;;;;;5084907;28;20399;-59
2023/10/02 07:14:40;;;;;;;77.03;33.88;;;;;;;;;;5090707;28;20044;-59
2023/10/02 07:17:21;;;;;;;67.97;32.22;;;;;;;;;;5086376;28;20040;-58
2023/10/02 07:19:48;;;;;;;69.25;32.30;;;;;;;;;;5089858;28;20044;-59
2023/10/02 07:22:17;;;;;;;74.68;34.75;;;;;;;;;;5076247;28;20075;-59
2023/10/02 07:24:46;;;;;;;62.00;31.40;;;;;;;;;;5070772;28;20079;-59
2023/10/02 07:27:25;;;;;;;72.32;33.05;;;;;;;;;;5089359;28;20044;-59
2023/10/02 07:29:52;;;;;;;75.72;34.67;;;;;;;;;;5090684;28;20464;-59
2023/10/02 07:32:19;;;;;;;75.53;34.83;;;;;;;;;;5082267;28;20111;-59
2023/10/02 07:34:47;;;;;;;67.65;33.17;;;;;;;;;;5082714;28;20036;-59
2023/10/02 07:37:15;;;;;;;87.05;36.97;;;;;;;;;;5074577;28;20036;-59
2023/10/02 07:39:42;;;;;;;72.13;33.67;;;;;;;;;;5089870;28;20048;-59
2023/10/02 07:42:10;;;;;;;73.65;35.45;;;;;;;;;;5085456;28;20089;-59
2023/10/02 07:44:37;;;;;;;83.75;38.00;;;;;;;;;;5094633;28;20395;-59
2023/10/02 07:47:25;;;;;;;77.60;37.35;;;;;;;;;;5080536;28;20059;-59
2023/10/02 07:49:58;;;;;;;76.43;36.00;;;;;;;;;;5084808;28;20146;-59
2023/10/02 07:52:35;;;;;;;93.88;39.17;;;;;;;;;;5092355;28;20482;-59
2023/10/02 07:55:01;;;;;;;79.20;37.63;;;;;;;;;;5082860;28;20475;-59
2023/10/02 07:57:32;;;;;;;79.20;37.67;;;;;;;;;;5077158;28;20048;-59
2023/10/02 08:00:02;;;;;;;83.55;38.05;;;;;;;;;;5084268;28;20162;-59
2023/10/02 08:02:33;;;;;;;77.15;35.45;;;;;;;;;;5094058;28;20067;-59
2023/10/02 08:05:04;;;;;;;82.47;38.28;;;;;;;;;;5094406;28;20041;-59
2023/10/02 08:07:30;;;;;;;78.60;36.03;;;;;;;;;;5076570;28;20118;-58
2023/10/02 08:09:58;;;;;;;82.35;37.78;;;;;;;;;;5076418;28;20138;-59
2023/10/02 08:12:32;;;;;;;83.32;37.25;;;;;;;;;;5073574;28;20048;-59
2023/10/02 08:20:19;;;;;;;82.53;36.80;;;;;;;;;;5067725;28;20070;-58
2023/10/02 08:22:48;;;;;;;76.68;34.92;;;;;;;;;;5064378;28;20042;-59
2023/10/02 08:25:15;;;;;;;81.85;36.35;;;;;;;;;;5065901;28;20052;-59
2023/10/02 08:27:41;;;;;;;71.15;35.05;;;;;;;;;;5068345;28;20055;-59
2023/10/02 08:30:26;;;;;;;72.38;34.38;;;;;;;;;;5068134;28;20060;-60
2023/10/02 08:32:53;;;;;;;68.03;33.55;;;;;;;;;;5064425;28;20063;-59
2023/10/02 08:35:19;;;;;;;76.03;34.10;;;;;;;;;;5070826;28;20090;-59
2023/10/02 08:37:46;;;;;;;69.50;32.97;;;;;;;;;;5062839;28;20090;-58
2023/10/02 08:40:15;;;;;;;73.88;32.20;;;;;;;;;;5068454;28;20045;-57
2023/10/02 08:42:46;;;;;;;68.88;30.95;;;;;;;;;;5084874;28;20443;-58
2023/10/02 08:45:20;;;;;;;73.20;31.42;;;;;;;;;;5076593;28;20067;-58
2023/10/02 08:47:49;;;;;;;71.43;32.72;;;;;;;;;;5072421;28;20045;-58
2023/10/02 08:50:16;;;;;;;69.85;32.42;;;;;;;;;;5072028;28;20040;-58
2023/10/02 08:52:50;;;;;;;68.35;31.30;;;;;;;;;;5076627;28;20128;-58
2023/10/02 08:55:33;;;;;;;70.43;32.28;;;;;;;;;;5078643;28;20048;-58
2023/10/02 08:58:15;;;;;;;66.10;30.03;;;;;;;;;;5092751;28;20044;-58
2023/10/02 09:03:42;;;;;;;59.50;27.63;;;;;;;;;;5070017;28;20044;-60
2023/10/02 09:06:32;;;;;;;58.53;27.50;;;;;;;;;;5070731;28;20040;-58
2023/10/02 09:12:08;;;;;;;59.67;28.67;;;;;;;;;;5044616;28;20552;-58
2023/10/02 09:14:40;;;;;;;64.28;28.77;;;;;;;;;;5047009;28;20041;-58
2023/10/02 09:17:07;;;;;;;59.13;28.65;;;;;;;;;;5050465;28;20051;-58
2023/10/02 09:19:34;;;;;;;68.30;32.45;;;;;;;;;;5081936;28;20048;-59
2023/10/02 09:22:07;;;;;;;64.60;31.83;;;;;;;;;;5071091;28;20158;-58
2023/10/02 09:24:41;;;;;;;65.35;30.25;;;;;;;;;;5073059;28;20408;-59
2023/10/02 09:27:30;;;;;;;59.13;29.48;;;;;;;;;;5071637;28;20043;-58
2023/10/02 09:30:19;;;;;;;65.40;29.10;;;;;;;;;;5072576;28;20122;-59
2023/10/02 09:32:49;;;;;;;55.08;27.42;;;;;;;;;;5085587;28;20051;-59
2023/10/02 09:35:39;;;;;;;49.42;25.50;;;;;;;;;;5074526;28;20052;-59
2023/10/02 09:38:15;;;;;;;51.15;24.70;;;;;;;;;;5092420;28;20083;-58
2023/10/02 09:40:56;;;;;;;49.22;24.33;;;;;;;;;;5084022;28;20572;-58
2023/10/02 09:43:28;;;;;;;49.03;24.95;;;;;;;;;;5083446;28;20068;-59
2023/10/02 09:45:55;;;;;;;46.60;23.13;;;;;;;;;;5076290;28;20046;-58
2023/10/02 09:51:15;;;;;;;41.70;22.30;;;;;;;;;;5078395;28;20476;-58
2023/10/02 09:54:02;;;;;;;38.95;22.02;;;;;;;;;;5087224;28;20502;-59
2023/10/02 09:56:32;;;;;;;44.58;22.13;;;;;;;;;;5069190;28;20063;-59
2023/10/02 09:59:15;;;;;;;43.67;20.85;;;;;;;;;;5092089;28;20084;-59
2023/10/02 10:01:42;;;;;;;39.53;20.73;;;;;;;;;;5089510;28;20411;-58
2023/10/02 10:07:09;;;;;;;39.67;19.95;;;;;;;;;;5079592;28;20139;-59
2023/10/02 10:09:51;;;;;;;41.70;21.10;;;;;;;;;;5090086;28;20052;-59
2023/10/02 10:12:29;;;;;;;36.38;19.23;;;;;;;;;;5091852;28;20035;-59
2023/10/02 10:15:23;;;;;;;39.95;19.27;;;;;;;;;;5090701;28;20059;-58
2023/10/02 10:17:49;;;;;;;37.55;19.90;;;;;;;;;;5091681;28;20044;-59
2023/10/02 10:20:19;;;;;;;35.20;19.52;;;;;;;;;;5078606;28;20073;-58
2023/10/02 10:22:53;;;;;;;32.55;17.77;;;;;;;;;;5085812;28;20171;-60
2023/10/02 10:27:54;;;;;;;33.35;18.20;;;;;;;;;;5086716;28;20055;-59
2023/10/02 10:32:47;;;;;;;29.65;16.95;;;;;;;;;;5080834;28;20154;-59
2023/10/02 10:35:33;;;;;;;33.92;17.77;;;;;;;;;;5090565;28;20507;-59
2023/10/02 10:38:01;;;;;;;32.75;18.15;;;;;;;;;;5083507;28;20520;-59
2023/10/02 10:40:46;;;;;;;33.80;16.55;;;;;;;;;;5091291;28;20158;-59
2023/10/02 10:43:14;;;;;;;35.75;18.02;;;;;;;;;;5064301;28;20057;-60
2023/10/02 10:45:41;;;;;;;33.58;17.00;;;;;;;;;;5086551;28;20400;-59
2023/10/02 10:48:23;;;;;;;32.15;16.08;;;;;;;;;;5084768;28;20048;-59
2023/10/02 10:51:20;;;;;;;26.30;15.02;;;;;;;;;;5083368;28;20169;-60
2023/10/02 10:53:47;;;;;;;30.67;15.60;;;;;;;;;;5063044;28;20135;-59
2023/10/02 10:56:17;;;;;;;29.70;15.43;;;;;;;;;;5069067;28;20032;-60
2023/10/02 10:58:45;;;;;;;28.23;15.40;;;;;;;;;;5069187;28;20036;-59
2023/10/02 11:01:20;;;;;;;31.70;15.02;;;;;;;;;;5069556;28;20040;-60
2023/10/02 11:03:56;;;;;;;30.55;16.45;;;;;;;;;;5065334;28;20052;-59
2023/10/02 11:06:22;;;;;;;24.70;13.88;;;;;;;;;;5066150;28;20046;-59
2023/10/02 11:09:15;;;;;;;26.02;14.88;;;;;;;;;;5069050;28;20036;-59
2023/10/02 11:11:50;;;;;;;27.25;15.13;;;;;;;;;;5060389;28;20822;-60
2023/10/02 11:14:28;;;;;;;29.73;14.13;;;;;;;;;;5062908;28;20577;-59
2023/10/02 11:16:55;;;;;;;28.55;14.43;;;;;;;;;;5066085;28;20046;-59
2023/10/02 11:22:14;;;;;;;26.23;15.10;;;;;;;;;;5068907;28;20396;-59
2023/10/02 11:25:00;;;;;;;25.65;14.05;;;;;;;;;;5067739;28;20052;-59
2023/10/02 11:27:29;;;;;;;25.15;13.55;;;;;;;;;;5059255;28;20181;-59
2023/10/02 11:30:01;;;;;;;24.20;14.40;;;;;;;;;;5070151;28;20514;-59
2023/10/02 11:32:46;;;;;;;26.38;13.80;;;;;;;;;;5068980;28;20037;-59
2023/10/02 11:35:12;;;;;;;26.27;14.05;;;;;;;;;;5066848;28;20407;-59
2023/10/02 11:37:45;;;;;;;22.85;12.75;;;;;;;;;;5070403;28;20029;-59
2023/10/02 11:40:11;;;;;;;28.52;13.85;;;;;;;;;;5068955;28;20102;-59
2023/10/02 11:42:37;;;;;;;22.52;12.95;;;;;;;;;;5070504;28;20434;-59
2023/10/02 11:45:04;;;;;;;32.38;14.20;;;;;;;;;;5070409;28;20063;-59
2023/10/02 11:47:30;;;;;;;24.35;13.52;;;;;;;;;;5069246;28;20048;-59
2023/10/02 11:50:02;;;;;;;28.65;15.15;;;;;;;;;;5066637;28;20073;-59
2023/10/02 11:52:29;;;;;;;27.17;14.65;;;;;;;;;;5067657;28;20048;-59
2023/10/02 11:54:55;;;;;;;27.65;15.57;;;;;;;;;;5069283;28;20441;-60
2023/10/02 11:57:21;;;;;;;32.38;16.08;;;;;;;;;;5069985;28;20095;-59
2023/10/02 11:59:47;;;;;;;31.15;15.93;;;;;;;;;;5069331;28;20037;-60
2023/10/02 12:02:16;;;;;;;43.40;15.98;;;;;;;;;;5068779;28;20157;-59
2023/10/02 12:04:44;;;;;;;28.27;14.65;;;;;;;;;;5060413;28;20192;-59
2023/10/02 12:07:10;;;;;;;23.85;14.30;;;;;;;;;;5068308;28;20076;-59
2023/10/02 12:09:36;;;;;;;27.42;15.88;;;;;;;;;;5085128;28;20139;-59
2023/10/02 12:12:03;;;;;;;28.42;16.33;;;;;;;;;;5084209;28;20468;-60
2023/10/02 12:14:30;;;;;;;33.55;18.80;;;;;;;;;;5082306;28;20075;-59
2023/10/02 12:16:59;;;;;;;27.63;17.38;;;;;;;;;;5084195;28;20174;-59
2023/10/02 12:19:26;;;;;;;30.10;15.57;;;;;;;;;;5081790;28;20127;-59
2023/10/02 12:21:52;;;;;;;27.30;16.05;;;;;;;;;;5089211;28;20179;-59
2023/10/02 12:24:20;;;;;;;34.65;19.20;;;;;;;;;;5088699;28;20044;-59
2023/10/02 12:26:46;;;;;;;29.95;17.88;;;;;;;;;;5080043;28;20033;-59
2023/10/02 12:29:13;;;;;;;32.17;18.15;;;;;;;;;;5080928;28;20079;-59
2023/10/02 12:31:40;;;;;;;33.53;17.85;;;;;;;;;;5093631;28;20054;-59
2023/10/02 12:34:06;;;;;;;34.42;18.60;;;;;;;;;;5084439;28;20115;-60
2023/10/02 12:36:33;;;;;;;30.88;18.65;;;;;;;;;;5077238;28;20067;-59
2023/10/02 12:38:59;;;;;;;35.85;21.10;;;;;;;;;;5092236;28;20496;-59
2023/10/02 12:41:30;;;;;;;32.53;19.83;;;;;;;;;;5092989;28;20048;-59
2023/10/02 12:43:58;;;;;;;40.08;22.25;;;;;;;;;;5093704;28;20047;-59
2023/10/02 12:46:27;;;;;;;40.83;20.95;;;;;;;;;;5093730;28;20117;-59
2023/10/02 12:48:55;;;;;;;36.47;20.65;;;;;;;;;;5086231;28;20066;-59
2023/10/02 12:51:22;;;;;;;33.97;20.17;;;;;;;;;;5093814;28;20115;-59
2023/10/02 12:53:50;;;;;;;34.30;19.38;;;;;;;;;;5093481;28;20047;-59
2023/10/02 12:56:22;;;;;;;37.92;20.48;;;;;;;;;;5092954;28;20048;-59
2023/10/02 12:58:58;;;;;;;36.67;20.90;;;;;;;;;;5085898;28;20153;-59
2023/10/02 13:01:27;;;;;;;35.80;19.98;;;;;;;;;;5067458;28;20040;-59
2023/10/02 13:03:54;;;;;;;36.60;18.92;;;;;;;;;;5083019;28;20032;-59
2023/10/02 13:06:22;;;;;;;36.00;19.02;;;;;;;;;;5092935;28;20436;-59
2023/10/02 13:08:48;;;;;;;29.75;16.65;;;;;;;;;;5090639;28;20058;-60
2023/10/02 13:11:18;;;;;;;34.33;19.55;;;;;;;;;;5067879;28;20035;-60
2023/10/02 13:13:46;;;;;;;34.67;18.90;;;;;;;;;;5093021;28;20102;-60
2023/10/02 13:16:12;;;;;;;35.22;20.88;;;;;;;;;;5079189;28;20483;-60
2023/10/02 13:18:39;;;;;;;40.35;21.48;;;;;;;;;;5070067;28;20412;-60
2023/10/02 13:21:09;;;;;;;35.95;21.75;;;;;;;;;;5070657;28;20037;-60
2023/10/02 13:23:38;;;;;;;39.00;20.90;;;;;;;;;;5068582;28;20064;-60
2023/10/02 13:26:10;;;;;;;40.33;22.33;;;;;;;;;;5065703;28;20051;-59
2023/10/02 13:28:37;;;;;;;37.88;20.83;;;;;;;;;;5070575;28;20068;-60
2023/10/02 13:31:13;;;;;;;40.40;22.45;;;;;;;;;;5056806;28;20107;-60
2023/10/02 13:33:52;;;;;;;37.63;20.55;;;;;;;;;;5071661;28;20185;-60
2023/10/02 13:36:22;;;;;;;36.58;22.58;;;;;;;;;;5066062;28;20091;-59
2023/10/02 13:38:53;;;;;;;40.65;23.13;;;;;;;;;;5068787;28;20045;-60
2023/10/02 13:41:19;;;;;;;40.33;22.00;;;;;;;;;;5071140;28;20488;-60
2023/10/02 13:43:47;;;;;;;38.22;21.42;;;;;;;;;;5071520;28;20098;-60
2023/10/02 13:46:14;;;;;;;35.58;21.58;;;;;;;;;;5071282;28;20154;-60
2023/10/02 13:48:41;;;;;;;38.05;21.95;;;;;;;;;;5069038;28;20158;-60
2023/10/02 13:51:07;;;;;;;38.03;21.67;;;;;;;;;;5072029;28;20113;-60
2023/10/02 13:53:34;;;;;;;38.08;21.85;;;;;;;;;;5070095;28;20040;-60
2023/10/02 13:56:08;;;;;;;36.20;21.52;;;;;;;;;;5071288;28;20040;-60
2023/10/02 13:58:48;;;;;;;35.50;20.67;;;;;;;;;;5071021;28;20095;-60
2023/10/02 14:01:14;;;;;;;39.15;20.85;;;;;;;;;;5066874;28;20057;-60
2023/10/02 14:03:45;;;;;;;37.10;22.58;;;;;;;;;;5069966;28;20048;-60
2023/10/02 14:06:12;;;;;;;42.45;22.77;;;;;;;;;;5068460;28;20475;-60
2023/10/02 14:08:42;;;;;;;35.85;21.58;;;;;;;;;;5078497;28;20065;-60
2023/10/02 14:11:08;;;;;;;38.60;21.20;;;;;;;;;;5077108;28;20489;-60
2023/10/02 14:13:36;;;;;;;39.15;22.45;;;;;;;;;;5073802;28;20118;-60
2023/10/02 14:16:06;;;;;;;43.20;23.30;;;;;;;;;;5082265;28;20045;-60
2023/10/02 14:18:32;;;;;;;39.92;22.48;;;;;;;;;;5076346;28;20032;-60
2023/10/02 14:21:04;;;;;;;37.58;21.50;;;;;;;;;;5080836;28;20131;-60
2023/10/02 14:23:31;;;;;;;39.78;22.27;;;;;;;;;;5086043;28;20518;-60
2023/10/02 14:26:01;;;;;;;37.28;22.02;;;;;;;;;;5081005;28;20033;-60
2023/10/02 14:28:29;;;;;;;41.70;22.67;;;;;;;;;;5074483;28;20079;-60
2023/10/02 14:30:56;;;;;;;38.70;22.25;;;;;;;;;;5077329;28;20083;-60
2023/10/02 14:33:25;;;;;;;39.20;24.00;;;;;;;;;;5085769;28;20040;-60
2023/10/02 14:35:56;;;;;;;44.15;23.65;;;;;;;;;;5090739;28;20464;-60
2023/10/02 14:38:24;;;;;;;41.20;22.45;;;;;;;;;;5091290;28;20064;-60
2023/10/02 14:40:53;;;;;;;36.25;20.67;;;;;;;;;;5075177;28;20098;-60
2023/10/02 14:43:20;;;;;;;41.63;23.20;;;;;;;;;;5069119;28;20064;-60
2023/10/02 14:45:47;;;;;;;36.40;21.67;;;;;;;;;;5080981;28;20119;-60
2023/10/02 14:48:16;;;;;;;39.13;22.67;;;;;;;;;;5090694;28;20052;-60
2023/10/02 14:50:43;;;;;;;43.65;24.23;;;;;;;;;;5084419;28;20048;-60
2023/10/02 14:53:11;;;;;;;42.65;22.48;;;;;;;;;;5084020;28;20044;-60
2023/10/02 14:55:48;;;;;;;39.17;23.55;;;;;;;;;;5090004;28;20097;-60
2023/10/02 14:58:15;;;;;;;39.15;22.73;;;;;;;;;;5071467;28;20423;-60
2023/10/02 15:00:41;;;;;;;40.65;24.30;;;;;;;;;;5090838;28;20117;-60
2023/10/02 15:03:08;;;;;;;40.08;22.42;;;;;;;;;;5090550;28;20115;-60
2023/10/02 15:05:37;;;;;;;39.03;23.58;;;;;;;;;;5081673;28;20055;-60
2023/10/02 15:08:03;;;;;;;38.78;22.95;;;;;;;;;;5084634;28;20101;-60
2023/10/02 15:10:32;;;;;;;35.05;21.65;;;;;;;;;;5075803;28;20119;-60
2023/10/02 15:12:58;;;;;;;37.38;23.08;;;;;;;;;;5090442;28;20496;-60
2023/10/02 15:15:28;;;;;;;44.92;23.50;;;;;;;;;;5090838;28;20040;-60
2023/10/02 15:17:55;;;;;;;43.70;24.92;;;;;;;;;;5071864;28;20032;-60
2023/10/02 15:20:23;;;;;;;44.03;25.27;;;;;;;;;;5084320;28;20037;-60
2023/10/02 15:22:54;;;;;;;41.75;25.05;;;;;;;;;;5090744;28;20051;-60
2023/10/02 15:25:21;;;;;;;47.80;27.08;;;;;;;;;;5073347;28;20059;-60
2023/10/02 15:27:48;;;;;;;51.13;27.75;;;;;;;;;;5075570;28;20395;-60
2023/10/02 15:30:16;;;;;;;44.33;26.35;;;;;;;;;;5086127;28;20048;-60
2023/10/02 15:32:46;;;;;;;36.13;24.10;;;;;;;;;;5078424;28;20475;-60